Alvin, Wisconsin
Current Conditions -  °F | °C
As of 11:35 PM on Saturday 22 Nov 2014 (Local Time) from KEGV Reporting Station
Haze Haze  
Wind Chill: 30°   Ceiling: 200
Heat Index: 34°   Visibility: 0.75mi
Dew Point: 34°   Wind: 5mph
Humidity: 100%   Direction: 160°SSE
Pressure: 29.65"   Gusts: NA
Location:  45.9186°N, 88.7601°W
Report Text: KEGV 230535Z AUTO 16004KT 3/4SM BR OVC002 01/01 A2965 RMK AO2 P0001 T00110011
Loading
Personal Weather Stations






























Interactive Weather Map New forecast layout! Learn more

10-Day Weather Forecast

Advertisements
Track Severe Weather on mobile